createdAt,value
2023-01-13T00:54:25.025Z,501.00
2023-01-13T00:55:25.974Z,498.00
2023-01-13T00:56:39.736Z,495.00
2023-01-13T00:57:25.963Z,493.00
2023-01-13T00:58:25.949Z,495.00
2023-01-13T00:59:25.946Z,495.00
2023-01-13T01:00:25.930Z,496.00
2023-01-13T01:01:26.042Z,497.00
2023-01-13T01:02:25.981Z,495.00
2023-01-13T01:03:25.901Z,494.00
2023-01-13T01:04:25.899Z,495.00
2023-01-13T01:05:25.889Z,497.00
2023-01-13T01:06:25.878Z,494.00
2023-01-13T01:07:25.879Z,495.00
2023-01-13T01:08:25.865Z,494.00
2023-01-13T01:09:25.847Z,491.00
2023-01-13T01:10:25.863Z,494.00
2023-01-13T01:11:25.839Z,497.00
2023-01-13T01:12:25.832Z,496.00
2023-01-13T01:13:25.823Z,496.00
2023-01-13T01:14:25.806Z,495.00
2023-01-13T01:15:25.792Z,493.00
2023-01-13T01:16:25.879Z,492.00
2023-01-13T01:17:25.773Z,491.00
2023-01-13T01:18:25.808Z,491.00
2023-01-13T01:19:25.769Z,490.00
2023-01-13T01:20:25.763Z,492.00
2023-01-13T01:21:25.746Z,493.00
2023-01-13T01:22:25.729Z,493.00
2023-01-13T01:23:25.724Z,493.00
2023-01-13T01:24:25.720Z,490.00
2023-01-13T01:25:25.708Z,490.00
2023-01-13T01:26:25.726Z,489.00
2023-01-13T01:27:25.689Z,489.00
2023-01-13T01:28:25.677Z,488.00
2023-01-13T01:29:25.700Z,485.00
2023-01-13T01:30:25.662Z,484.00
2023-01-13T01:31:25.698Z,482.00
2023-01-13T01:32:25.640Z,482.00
2023-01-13T01:33:25.632Z,486.00
2023-01-13T01:34:25.633Z,488.00
2023-01-13T01:35:25.620Z,490.00
2023-01-13T01:36:25.614Z,487.00
2023-01-13T01:37:25.594Z,488.00
2023-01-13T01:38:25.588Z,488.00
2023-01-13T01:39:25.610Z,487.00
2023-01-13T01:40:25.568Z,488.00
2023-01-13T01:41:25.566Z,493.00
2023-01-13T01:42:25.589Z,495.00
2023-01-13T01:43:25.540Z,497.00
2023-01-13T01:44:25.537Z,495.00
2023-01-13T01:45:25.527Z,493.00
2023-01-13T01:46:25.606Z,492.00
2023-01-13T01:47:25.512Z,491.00
2023-01-13T01:48:25.499Z,493.00
2023-01-13T01:49:25.495Z,493.00
2023-01-13T01:50:26.081Z,491.00
2023-01-13T01:51:25.471Z,488.00
2023-01-13T01:52:25.466Z,491.00
2023-01-13T01:53:25.466Z,490.00
2023-01-13T01:54:25.449Z,491.00
2023-01-13T01:55:25.443Z,490.00
2023-01-13T01:56:25.431Z,490.00
2023-01-13T01:57:25.435Z,490.00
2023-01-13T01:58:25.435Z,487.00
2023-01-13T01:59:25.399Z,486.00
2023-01-13T02:00:25.392Z,485.00
2023-01-13T02:01:25.546Z,485.00
2023-01-13T02:02:25.433Z,486.00
2023-01-13T02:03:25.376Z,484.00
2023-01-13T02:04:25.360Z,484.00
2023-01-13T02:05:25.347Z,486.00
2023-01-13T02:06:25.350Z,487.00
2023-01-13T02:07:25.384Z,486.00
2023-01-13T02:08:25.327Z,486.00
2023-01-13T02:09:25.315Z,485.00
2023-01-13T02:10:25.317Z,482.00
2023-01-13T02:11:25.304Z,482.00
2023-01-13T02:12:25.323Z,483.00
2023-01-13T02:13:25.280Z,486.00
2023-01-13T02:14:25.296Z,487.00
2023-01-13T02:15:25.263Z,485.00
2023-01-13T02:16:25.307Z,482.00
2023-01-13T02:17:25.247Z,481.00
2023-01-13T02:18:25.245Z,479.00
2023-01-13T02:19:25.233Z,481.00
2023-01-13T02:20:25.216Z,481.00
2023-01-13T02:21:25.215Z,482.00
2023-01-13T02:22:25.202Z,479.00
2023-01-13T02:23:25.197Z,479.00
2023-01-13T02:24:25.196Z,480.00
2023-01-13T02:25:25.197Z,478.00
2023-01-13T02:26:25.167Z,480.00
2023-01-13T02:27:25.156Z,480.00
2023-01-13T02:28:25.157Z,478.00
2023-01-13T02:29:25.140Z,480.00
2023-01-13T02:30:25.167Z,477.00
2023-01-13T02:31:25.205Z,471.00
2023-01-13T02:32:25.119Z,473.00
2023-01-13T02:33:25.129Z,476.00
2023-01-13T02:34:25.110Z,480.00
2023-01-13T02:35:25.095Z,480.00
2023-01-13T02:36:25.084Z,480.00
2023-01-13T02:37:25.080Z,478.00
2023-01-13T02:38:25.071Z,479.00
2023-01-13T02:39:25.054Z,478.00
2023-01-13T02:40:25.071Z,477.00
2023-01-13T02:41:25.044Z,480.00
2023-01-13T02:42:25.034Z,483.00
2023-01-13T02:43:25.020Z,482.00
2023-01-13T02:44:25.013Z,482.00
2023-01-13T02:45:25.049Z,481.00
2023-01-13T02:46:25.027Z,481.00
2023-01-13T02:47:24.993Z,480.00
2023-01-13T02:48:25.008Z,481.00
2023-01-13T02:49:24.964Z,482.00
2023-01-13T02:50:24.974Z,475.00
2023-01-13T02:51:24.943Z,473.00
2023-01-13T02:52:24.939Z,474.00
2023-01-13T02:53:24.932Z,475.00
2023-01-13T02:54:24.920Z,474.00
2023-01-13T02:55:24.912Z,473.00
2023-01-13T02:56:24.904Z,470.00
2023-01-13T02:57:24.892Z,467.00
2023-01-13T02:58:24.943Z,467.00
2023-01-13T02:59:24.874Z,465.00
2023-01-13T03:00:24.866Z,465.00
2023-01-13T03:01:25.008Z,466.00
2023-01-13T03:02:24.922Z,465.00
2023-01-13T03:03:24.903Z,468.00
2023-01-13T03:04:24.837Z,468.00
2023-01-13T03:05:24.823Z,466.00
2023-01-13T03:06:24.814Z,468.00
2023-01-13T03:07:24.811Z,470.00
2023-01-13T03:08:24.799Z,470.00
2023-01-13T03:09:24.802Z,467.00
2023-01-13T03:10:24.784Z,469.00
2023-01-13T03:11:24.773Z,468.00
2023-01-13T03:12:24.760Z,467.00
2023-01-13T03:13:24.753Z,468.00
2023-01-13T03:14:24.743Z,469.00
2023-01-13T03:15:24.743Z,471.00
2023-01-13T03:16:24.796Z,473.00
2023-01-13T03:17:24.736Z,472.00
2023-01-13T03:18:24.728Z,472.00
2023-01-13T03:19:24.705Z,470.00
2023-01-13T03:20:24.691Z,469.00
2023-01-13T03:21:24.729Z,469.00
2023-01-13T03:22:24.670Z,467.00
2023-01-13T03:23:24.698Z,466.00
2023-01-13T03:24:24.664Z,464.00
2023-01-13T03:25:24.644Z,461.00
2023-01-13T03:26:24.648Z,458.00
2023-01-13T03:27:24.625Z,461.00
2023-01-13T03:28:24.632Z,460.00
2023-01-13T03:29:24.612Z,460.00
2023-01-13T03:30:24.701Z,461.00
2023-01-13T03:31:24.597Z,462.00
2023-01-13T03:32:24.583Z,462.00
2023-01-13T03:33:24.571Z,459.00
2023-01-13T03:34:24.588Z,460.00
2023-01-13T03:35:24.552Z,462.00
2023-01-13T03:36:24.549Z,460.00
2023-01-13T03:37:24.547Z,462.00
2023-01-13T03:38:24.532Z,465.00
2023-01-13T03:39:24.522Z,465.00
2023-01-13T03:40:24.529Z,463.00
2023-01-13T03:41:24.517Z,463.00
2023-01-13T03:42:24.505Z,462.00
2023-01-13T03:43:24.490Z,464.00
2023-01-13T03:44:24.542Z,462.00
2023-01-13T03:45:24.471Z,462.00
2023-01-13T03:46:24.549Z,467.00
2023-01-13T03:47:24.443Z,466.00
2023-01-13T03:48:24.444Z,468.00
2023-01-13T03:49:24.428Z,469.00
2023-01-13T03:50:24.463Z,468.00
2023-01-13T03:51:24.412Z,469.00
2023-01-13T03:52:24.414Z,467.00
2023-01-13T03:53:24.408Z,466.00
2023-01-13T03:54:24.388Z,466.00
2023-01-13T03:55:24.373Z,465.00
2023-01-13T03:56:24.371Z,466.00
2023-01-13T03:57:24.357Z,467.00
2023-01-13T03:58:24.349Z,464.00
2023-01-13T03:59:24.345Z,466.00
2023-01-13T04:00:24.337Z,466.00
2023-01-13T04:01:24.449Z,466.00
2023-01-13T04:02:24.316Z,465.00
2023-01-13T04:03:24.417Z,465.00
2023-01-13T04:04:24.300Z,464.00
2023-01-13T04:05:24.287Z,462.00
2023-01-13T04:06:24.314Z,460.00
2023-01-13T04:07:24.271Z,461.00
2023-01-13T04:08:24.262Z,462.00
2023-01-13T04:09:24.252Z,464.00
2023-01-13T04:10:24.249Z,462.00
2023-01-13T04:11:24.234Z,462.00
2023-01-13T04:12:24.224Z,459.00
2023-01-13T04:13:24.224Z,456.00
2023-01-13T04:14:24.208Z,458.00
2023-01-13T04:15:24.275Z,457.00
2023-01-13T04:16:24.250Z,458.00
2023-01-13T04:17:24.186Z,458.00
2023-01-13T04:19:24.160Z,453.00
2023-01-13T04:20:24.160Z,453.00
2023-01-13T04:21:24.149Z,454.00
2023-01-13T04:22:24.176Z,454.00
2023-01-13T04:23:24.128Z,453.00
2023-01-13T04:24:24.124Z,452.00
2023-01-13T04:25:24.108Z,454.00
2023-01-13T04:26:24.104Z,452.00
2023-01-13T04:27:24.116Z,452.00
2023-01-13T04:28:24.094Z,453.00
2023-01-13T04:29:24.082Z,455.00
2023-01-13T04:30:24.074Z,455.00
2023-01-13T04:31:24.152Z,455.00
2023-01-13T04:32:24.049Z,452.00
2023-01-13T04:33:24.039Z,453.00
2023-01-13T04:34:24.146Z,454.00
2023-01-13T04:35:24.027Z,452.00
2023-01-13T04:36:24.015Z,453.00
2023-01-13T04:37:24.019Z,452.00
2023-01-13T04:38:24.022Z,451.00
2023-01-13T04:39:23.990Z,452.00
2023-01-13T04:40:23.977Z,451.00
2023-01-13T04:41:23.976Z,454.00
2023-01-13T04:42:23.960Z,454.00
2023-01-13T04:43:23.956Z,454.00
2023-01-13T04:44:23.944Z,455.00
2023-01-13T04:45:23.944Z,456.00
2023-01-13T04:46:23.981Z,458.00
2023-01-13T04:48:23.911Z,458.00
2023-01-13T04:49:23.900Z,460.00
2023-01-13T04:50:23.890Z,460.00
2023-01-13T04:51:23.890Z,461.00
2023-01-13T04:52:23.886Z,460.00
2023-01-13T04:53:23.866Z,461.00
2023-01-13T04:54:23.883Z,459.00
2023-01-13T04:55:23.856Z,456.00
2023-01-13T04:56:23.849Z,456.00
2023-01-13T04:57:23.829Z,456.00
2023-01-13T04:58:23.828Z,458.00
2023-01-13T04:59:23.819Z,461.00
2023-01-13T05:00:23.794Z,460.00
2023-01-13T05:01:23.927Z,462.00
2023-01-13T05:02:23.860Z,459.00
2023-01-13T05:03:23.770Z,459.00
2023-01-13T05:04:23.797Z,457.00
2023-01-13T05:05:23.759Z,458.00
2023-01-13T05:06:23.756Z,458.00
2023-01-13T05:07:23.739Z,462.00
2023-01-13T05:08:23.731Z,461.00
2023-01-13T05:09:23.721Z,458.00
2023-01-13T05:10:24.222Z,459.00
2023-01-13T05:11:23.713Z,458.00
2023-01-13T05:12:23.694Z,455.00
2023-01-13T05:13:23.693Z,456.00
2023-01-13T05:14:23.702Z,454.00
2023-01-13T05:15:23.669Z,453.00
2023-01-13T05:16:23.764Z,452.00
2023-01-13T05:17:23.647Z,452.00
2023-01-13T05:18:23.642Z,452.00
2023-01-13T05:19:23.641Z,451.00
2023-01-13T05:20:23.625Z,449.00
2023-01-13T05:21:23.641Z,451.00
2023-01-13T05:22:23.601Z,448.00
2023-01-13T05:23:23.634Z,450.00
2023-01-13T05:24:23.668Z,453.00
2023-01-13T05:25:23.576Z,453.00
2023-01-13T05:26:23.599Z,453.00
2023-01-13T05:27:23.568Z,454.00
2023-01-13T05:28:23.555Z,454.00
2023-01-13T05:29:23.555Z,453.00
2023-01-13T05:30:23.537Z,455.00
2023-01-13T05:31:23.577Z,456.00
2023-01-13T05:32:23.528Z,454.00
2023-01-13T05:33:23.525Z,455.00
2023-01-13T05:34:23.504Z,456.00
2023-01-13T05:35:23.509Z,456.00
2023-01-13T05:36:23.497Z,457.00
2023-01-13T05:37:23.549Z,458.00
2023-01-13T05:38:23.496Z,458.00
2023-01-13T05:39:23.481Z,457.00
2023-01-13T05:40:23.454Z,456.00
2023-01-13T05:41:23.440Z,454.00
2023-01-13T05:42:23.458Z,454.00
2023-01-13T05:43:23.428Z,453.00
2023-01-13T05:44:23.411Z,453.00
2023-01-13T05:45:23.406Z,453.00
2023-01-13T05:46:23.423Z,454.00
2023-01-13T05:47:23.382Z,455.00
2023-01-13T05:48:23.380Z,455.00
2023-01-13T05:49:23.378Z,456.00
2023-01-13T05:50:23.359Z,460.00
2023-01-13T05:51:23.350Z,456.00
2023-01-13T05:52:23.337Z,456.00
2023-01-13T05:53:23.330Z,450.00
2023-01-13T05:54:23.331Z,450.00
2023-01-13T05:55:23.325Z,449.00
2023-01-13T05:56:23.304Z,451.00
2023-01-13T05:57:23.301Z,451.00
2023-01-13T05:58:23.316Z,454.00
2023-01-13T05:59:23.283Z,453.00
2023-01-13T06:00:23.287Z,452.00
2023-01-13T06:01:23.360Z,449.00
2023-01-13T06:02:23.251Z,449.00
2023-01-13T06:03:23.248Z,449.00
2023-01-13T06:04:23.268Z,450.00
2023-01-13T06:05:23.236Z,449.00
2023-01-13T06:06:23.223Z,448.00
2023-01-13T06:07:23.208Z,448.00
2023-01-13T06:08:23.680Z,448.00
2023-01-13T06:09:23.189Z,444.00
2023-01-13T06:10:23.180Z,441.00
2023-01-13T06:11:23.192Z,442.00
2023-01-13T06:12:23.166Z,444.00
2023-01-13T06:13:23.160Z,443.00
2023-01-13T06:14:23.176Z,443.00
2023-01-13T06:15:23.139Z,443.00
2023-01-13T06:16:23.195Z,445.00
2023-01-13T06:17:23.122Z,447.00
2023-01-13T06:18:23.138Z,445.00
2023-01-13T06:19:23.136Z,446.00
2023-01-13T06:20:23.100Z,446.00
2023-01-13T06:21:23.187Z,445.00
2023-01-13T06:22:23.080Z,451.00
2023-01-13T06:23:23.086Z,453.00
2023-01-13T06:24:23.183Z,454.00
2023-01-13T06:25:23.066Z,461.00
2023-01-13T06:26:23.054Z,471.00
2023-01-13T06:27:23.057Z,476.00
2023-01-13T06:28:23.189Z,484.00
2023-01-13T06:29:23.020Z,493.00
2023-01-13T06:30:23.037Z,496.00
2023-01-13T06:31:23.086Z,495.00
2023-01-13T06:32:22.988Z,495.00
2023-01-13T06:33:23.028Z,500.00
2023-01-13T06:34:22.973Z,502.00
2023-01-13T06:35:22.966Z,504.00
2023-01-13T06:36:23.191Z,505.00
2023-01-13T06:37:22.958Z,506.00
2023-01-13T06:38:22.953Z,503.00
2023-01-13T06:39:22.935Z,502.00
2023-01-13T06:40:23.927Z,506.00
2023-01-13T06:41:22.911Z,507.00
2023-01-13T06:43:23.210Z,517.00
2023-01-13T06:44:22.881Z,519.00
2023-01-13T06:45:22.874Z,522.00
2023-01-13T06:46:22.959Z,526.00
2023-01-13T06:47:22.854Z,529.00
2023-01-13T06:48:24.655Z,532.00
2023-01-13T06:49:22.852Z,537.00
2023-01-13T06:50:22.823Z,541.00
2023-01-13T06:51:22.825Z,546.00
2023-01-13T06:52:23.209Z,551.00
2023-01-13T06:53:23.232Z,556.00
2023-01-13T06:54:22.802Z,556.00
2023-01-13T06:55:23.377Z,557.00
2023-01-13T06:56:22.822Z,558.00
2023-01-13T06:57:22.782Z,559.00
2023-01-13T06:58:23.195Z,556.00
2023-01-13T06:59:22.767Z,556.00
2023-01-13T07:00:22.797Z,561.00
2023-01-13T07:01:22.947Z,572.00
2023-01-13T07:02:22.920Z,592.00
2023-01-13T07:03:23.198Z,599.00
2023-01-13T07:04:22.708Z,605.00
2023-01-13T07:05:22.688Z,607.00
2023-01-13T07:06:22.694Z,615.00
2023-01-13T07:07:22.670Z,636.00
2023-01-13T07:08:22.904Z,682.00
2023-01-13T07:09:22.660Z,719.00
2023-01-13T07:10:22.826Z,738.00
2023-01-13T07:11:22.707Z,753.00
2023-01-13T07:12:22.657Z,768.00
2023-01-13T07:13:22.618Z,793.00
2023-01-13T07:14:22.652Z,801.00
2023-01-13T07:16:22.642Z,848.00
2023-01-13T07:17:22.632Z,860.00
2023-01-13T07:18:23.168Z,873.00
2023-01-13T07:19:22.706Z,908.00
2023-01-13T07:20:22.588Z,918.00
2023-01-13T07:21:21.582Z,926.00
2023-01-13T07:22:22.575Z,942.00
2023-01-13T07:23:22.738Z,952.00
2023-01-13T07:24:22.965Z,983.00
2023-01-13T07:25:22.518Z,982.00
2023-01-13T07:26:22.548Z,932.00
2023-01-13T07:27:22.496Z,951.00
2023-01-13T07:28:22.490Z,957.00
2023-01-13T07:29:22.805Z,972.00
2023-01-13T07:30:22.510Z,997.00
2023-01-13T07:31:22.503Z,985.00
2023-01-13T07:32:22.450Z,987.00
2023-01-13T07:33:22.458Z,988.00
2023-01-13T07:34:22.470Z,985.00
2023-01-13T07:35:22.420Z,979.00
2023-01-13T07:36:22.420Z,975.00
2023-01-13T07:37:22.709Z,970.00
2023-01-13T07:38:22.391Z,964.00
2023-01-13T07:39:22.389Z,955.00
2023-01-13T07:40:22.714Z,949.00
2023-01-13T07:41:22.372Z,954.00
2023-01-13T07:42:22.365Z,950.00
2023-01-13T07:43:22.354Z,934.00
2023-01-13T07:44:22.354Z,923.00
2023-01-13T07:45:22.371Z,915.00
2023-01-13T07:46:22.322Z,914.00
2023-01-13T07:47:22.319Z,916.00
2023-01-13T07:48:22.712Z,922.00
2023-01-13T07:49:22.293Z,924.00
2023-01-13T07:50:22.311Z,927.00
2023-01-13T07:51:22.307Z,931.00
2023-01-13T07:52:22.270Z,934.00
2023-01-13T07:53:22.776Z,935.00
2023-01-13T07:54:35.227Z,929.00
2023-01-13T07:55:22.249Z,915.00
2023-01-13T07:56:22.724Z,909.00
2023-01-13T07:57:22.239Z,909.00
2023-01-13T07:58:22.215Z,913.00
2023-01-13T07:59:22.218Z,920.00
2023-01-13T08:00:22.198Z,925.00
2023-01-13T08:01:22.395Z,926.00
2023-01-13T08:02:22.458Z,931.00
2023-01-13T08:03:22.169Z,933.00
2023-01-13T08:04:22.170Z,935.00
2023-01-13T08:05:22.164Z,931.00
2023-01-13T08:06:22.180Z,934.00
2023-01-13T08:07:22.153Z,931.00
2023-01-13T08:08:22.157Z,927.00
2023-01-13T08:09:22.248Z,928.00
2023-01-13T08:10:22.496Z,928.00
2023-01-13T08:11:23.611Z,923.00
2023-01-13T08:12:22.246Z,920.00
2023-01-13T08:13:22.228Z,920.00
2023-01-13T08:15:22.217Z,911.00
2023-01-13T08:16:22.246Z,910.00
2023-01-13T08:17:22.220Z,908.00
2023-01-13T08:18:22.489Z,906.00
2023-01-13T08:19:22.181Z,903.00
2023-01-13T08:20:22.246Z,901.00
2023-01-13T08:21:22.175Z,900.00
2023-01-13T08:22:22.180Z,903.00
2023-01-13T08:23:22.139Z,902.00
2023-01-13T08:24:22.143Z,903.00
2023-01-13T08:25:22.311Z,900.00
2023-01-13T08:26:22.172Z,896.00
2023-01-13T08:27:22.132Z,890.00
2023-01-13T08:28:22.116Z,890.00
2023-01-13T08:29:22.135Z,892.00
2023-01-13T08:30:22.268Z,889.00
2023-01-13T08:31:22.161Z,885.00
2023-01-13T08:32:22.698Z,887.00
2023-01-13T08:33:22.088Z,886.00
2023-01-13T08:34:22.227Z,886.00
2023-01-13T08:35:22.256Z,878.00
2023-01-13T08:36:22.078Z,875.00
2023-01-13T08:37:22.039Z,872.00
2023-01-13T08:38:22.284Z,876.00
2023-01-13T08:39:22.031Z,873.00
2023-01-13T08:40:22.049Z,869.00
2023-01-13T08:41:21.992Z,868.00
2023-01-13T08:42:21.978Z,866.00
2023-01-13T08:43:22.260Z,858.00
2023-01-13T08:44:22.343Z,861.00
2023-01-13T08:45:22.415Z,865.00
2023-01-13T08:46:22.024Z,866.00
2023-01-13T08:47:21.986Z,867.00
2023-01-13T08:48:22.256Z,864.00
2023-01-13T08:49:22.268Z,862.00
2023-01-13T08:51:21.914Z,860.00
2023-01-13T08:52:21.902Z,861.00
2023-01-13T08:53:22.231Z,863.00
2023-01-13T08:54:21.917Z,864.00
2023-01-13T08:55:21.892Z,860.00
2023-01-13T08:56:22.254Z,867.00
2023-01-13T08:57:21.991Z,869.00
2023-01-13T08:58:21.836Z,873.00
2023-01-13T08:59:21.847Z,872.00
2023-01-13T09:00:21.835Z,871.00
2023-01-13T09:01:22.413Z,869.00
2023-01-13T09:02:21.843Z,869.00
2023-01-13T09:03:21.816Z,871.00
2023-01-13T09:04:21.858Z,867.00
2023-01-13T09:05:21.792Z,867.00
2023-01-13T09:06:22.260Z,864.00
2023-01-13T09:07:21.775Z,862.00
2023-01-13T09:08:21.763Z,853.00
2023-01-13T09:09:21.763Z,858.00
2023-01-13T09:10:21.787Z,860.00
2023-01-13T09:11:21.773Z,856.00
2023-01-13T09:12:21.747Z,856.00
2023-01-13T09:13:21.718Z,856.00
2023-01-13T09:14:21.767Z,851.00
2023-01-13T09:15:21.729Z,851.00
2023-01-13T09:16:21.694Z,852.00
2023-01-13T09:17:21.673Z,852.00
2023-01-13T09:18:21.670Z,854.00
2023-01-13T09:19:21.656Z,854.00
2023-01-13T09:20:21.776Z,853.00
2023-01-13T09:21:21.642Z,852.00
2023-01-13T09:22:21.650Z,852.00
2023-01-13T09:23:21.627Z,851.00
2023-01-13T09:24:21.621Z,848.00
2023-01-13T09:25:21.758Z,846.00
2023-01-13T09:26:21.711Z,847.00
2023-01-13T09:27:21.570Z,844.00
2023-01-13T09:28:21.576Z,846.00
2023-01-13T09:29:21.580Z,844.00
2023-01-13T09:30:21.772Z,843.00
2023-01-13T09:31:21.596Z,841.00
2023-01-13T09:32:21.517Z,839.00
2023-01-13T09:33:21.529Z,838.00
2023-01-13T09:34:21.532Z,837.00
2023-01-13T09:35:21.510Z,835.00
2023-01-13T09:36:21.504Z,836.00
2023-01-13T09:37:21.778Z,836.00
2023-01-13T09:38:21.498Z,834.00
2023-01-13T09:39:21.514Z,832.00
2023-01-13T09:40:21.494Z,830.00
2023-01-13T09:41:21.480Z,828.00
2023-01-13T09:42:21.814Z,828.00
2023-01-13T09:44:21.435Z,833.00
2023-01-13T09:45:21.424Z,836.00
2023-01-13T09:46:21.472Z,832.00
2023-01-13T09:47:21.783Z,831.00
2023-01-13T09:48:21.530Z,830.00
2023-01-13T09:49:21.431Z,829.00
2023-01-13T09:50:21.446Z,830.00
2023-01-13T09:51:21.809Z,829.00
2023-01-13T09:52:21.378Z,828.00
2023-01-13T09:53:21.378Z,829.00
2023-01-13T09:54:21.351Z,828.00
2023-01-13T09:55:21.357Z,827.00
2023-01-13T09:56:21.790Z,828.00
2023-01-13T09:57:21.791Z,827.00
2023-01-13T09:59:21.318Z,826.00
2023-01-13T10:00:21.278Z,828.00
2023-01-13T10:01:21.318Z,826.00
2023-01-13T10:02:21.392Z,826.00
2023-01-13T10:03:21.350Z,824.00
2023-01-13T10:04:21.328Z,822.00
2023-01-13T10:05:21.299Z,824.00
2023-01-13T10:06:21.263Z,823.00
2023-01-13T10:07:23.038Z,822.00
2023-01-13T10:08:21.202Z,823.00
2023-01-13T10:09:21.213Z,821.00
2023-01-13T10:10:21.289Z,820.00
2023-01-13T10:11:21.253Z,817.00
2023-01-13T10:12:21.319Z,816.00
2023-01-13T10:13:21.184Z,820.00
2023-01-13T10:14:21.177Z,821.00
2023-01-13T10:15:21.165Z,822.00
2023-01-13T10:16:21.273Z,820.00
2023-01-13T10:17:21.294Z,819.00
2023-01-13T10:18:21.140Z,822.00
2023-01-13T10:19:21.108Z,823.00
2023-01-13T10:20:21.104Z,821.00
2023-01-13T10:21:21.089Z,817.00
2023-01-13T10:22:21.075Z,814.00
2023-01-13T10:23:21.066Z,813.00
2023-01-13T10:24:21.064Z,815.00
2023-01-13T10:25:21.068Z,816.00
2023-01-13T10:27:21.034Z,814.00
2023-01-13T10:28:21.118Z,815.00
2023-01-13T10:29:21.116Z,812.00
2023-01-13T10:30:21.394Z,811.00
2023-01-13T10:31:21.047Z,814.00
2023-01-13T10:32:20.983Z,815.00
2023-01-13T10:33:20.997Z,817.00
2023-01-13T10:34:20.973Z,819.00
2023-01-13T10:35:21.291Z,822.00
2023-01-13T10:36:20.972Z,824.00
2023-01-13T10:37:21.278Z,827.00
2023-01-13T10:38:20.945Z,831.00
2023-01-13T10:39:20.927Z,840.00
2023-01-13T10:41:20.927Z,854.00
2023-01-13T10:42:21.275Z,860.00
2023-01-13T10:43:20.939Z,896.00
2023-01-13T10:44:20.918Z,905.00
2023-01-13T10:45:20.880Z,907.00
2023-01-13T10:46:20.995Z,914.00
2023-01-13T10:47:21.294Z,941.00
2023-01-13T10:48:20.876Z,949.00
2023-01-13T10:49:21.191Z,961.00
2023-01-13T10:50:20.871Z,961.00
2023-01-13T10:53:20.796Z,981.00
2023-01-13T10:54:20.804Z,987.00
2023-01-13T10:55:20.799Z,990.00
2023-01-13T10:56:20.782Z,990.00
2023-01-13T10:57:20.791Z,998.00
2023-01-13T10:58:20.827Z,1029.00
2023-01-13T10:59:20.816Z,1021.00
2023-01-13T11:00:20.920Z,1025.00
2023-01-13T11:02:25.965Z,1045.00
2023-01-13T11:03:20.729Z,1054.00
2023-01-13T11:04:20.817Z,1059.00
2023-01-13T11:05:20.750Z,1067.00
2023-01-13T11:06:20.709Z,1074.00
2023-01-13T11:07:20.672Z,1083.00
2023-01-13T11:08:20.664Z,1091.00
2023-01-13T11:09:20.665Z,1099.00
2023-01-13T11:10:20.682Z,1102.00
2023-01-13T11:11:20.639Z,1108.00
2023-01-13T11:12:20.769Z,1117.00
2023-01-13T11:13:20.795Z,1136.00
2023-01-13T11:14:20.638Z,1142.00
2023-01-13T11:15:20.632Z,1151.00
2023-01-13T11:16:21.096Z,1158.00
2023-01-13T11:17:20.804Z,1183.00
2023-01-13T11:18:20.792Z,983.00
2023-01-13T11:20:20.592Z,1010.00
2023-01-13T11:21:20.580Z,1014.00
2023-01-13T11:22:20.883Z,1024.00
2023-01-13T11:23:20.809Z,1129.00
2023-01-13T11:24:20.527Z,1146.00
2023-01-13T11:25:20.514Z,1146.00
2023-01-13T11:26:20.508Z,1146.00
2023-01-13T11:27:20.520Z,1143.00
2023-01-13T11:28:20.831Z,1140.00
2023-01-13T11:29:20.501Z,1139.00
2023-01-13T11:30:20.471Z,1141.00
2023-01-13T11:31:20.588Z,1136.00
2023-01-13T11:32:20.452Z,1132.00
2023-01-13T11:33:20.439Z,1130.00
2023-01-13T11:34:20.464Z,1124.00
2023-01-13T11:35:20.423Z,1120.00
2023-01-13T11:36:20.804Z,1122.00
2023-01-13T11:37:20.833Z,1121.00
2023-01-13T11:38:20.445Z,1120.00
2023-01-13T11:39:20.815Z,1120.00
2023-01-13T11:41:20.797Z,1121.00
2023-01-13T11:42:20.814Z,1120.00
2023-01-13T11:43:20.359Z,1118.00
2023-01-13T11:44:20.354Z,1115.00
2023-01-13T11:45:20.340Z,1113.00
2023-01-13T11:46:20.412Z,1112.00
2023-01-13T11:47:20.830Z,1111.00
2023-01-13T11:48:20.307Z,1113.00
2023-01-13T11:49:22.268Z,923.00
2023-01-13T11:50:20.317Z,704.00
2023-01-13T11:51:20.274Z,701.00
2023-01-13T11:52:20.315Z,697.00
2023-01-13T11:53:20.283Z,623.00
2023-01-13T11:54:20.301Z,613.00
2023-01-13T11:55:22.537Z,615.00
2023-01-13T11:56:20.251Z,636.00
2023-01-13T11:57:20.223Z,611.00
2023-01-13T11:58:20.228Z,575.00
2023-01-13T11:59:20.209Z,547.00
2023-01-13T12:00:20.207Z,585.00
2023-01-13T12:01:23.069Z,584.00
2023-01-13T12:02:20.276Z,631.00
2023-01-13T12:03:20.247Z,694.00
2023-01-13T12:04:20.315Z,702.00
2023-01-13T12:05:20.154Z,713.00
2023-01-13T12:06:20.171Z,735.00
2023-01-13T12:07:22.857Z,775.00
2023-01-13T12:08:20.139Z,804.00
2023-01-13T12:09:20.335Z,852.00
2023-01-13T12:10:20.113Z,877.00
2023-01-13T12:11:20.136Z,891.00
2023-01-13T12:12:20.103Z,899.00
2023-01-13T12:13:20.085Z,921.00
2023-01-13T12:14:20.313Z,959.00
2023-01-13T12:15:20.065Z,978.00
2023-01-13T12:17:20.052Z,1004.00
2023-01-13T12:18:20.079Z,1046.00
2023-01-13T12:19:20.343Z,1058.00
2023-01-13T12:20:20.024Z,1072.00
2023-01-13T12:21:20.076Z,1086.00
2023-01-13T12:22:20.052Z,1098.00
2023-01-13T12:23:20.003Z,1096.00
2023-01-13T12:24:19.986Z,1105.00
2023-01-13T12:25:19.974Z,1115.00
2023-01-13T12:26:19.986Z,1144.00
2023-01-13T12:27:19.961Z,1159.00
2023-01-13T12:28:20.086Z,1169.00
2023-01-13T12:29:19.944Z,1172.00
2023-01-13T12:30:19.950Z,1177.00
2023-01-13T12:31:19.960Z,1193.00
2023-01-13T12:32:19.935Z,1218.00
2023-01-13T12:33:19.906Z,1237.00
2023-01-13T12:34:19.892Z,1253.00
2023-01-13T12:35:20.319Z,1270.00
2023-01-13T12:36:19.890Z,1278.00
2023-01-13T12:37:19.864Z,1296.00
2023-01-13T12:38:19.892Z,1318.00
2023-01-13T12:39:19.851Z,1348.00
2023-01-13T12:40:19.851Z,1359.00
2023-01-13T12:41:19.825Z,1365.00
2023-01-13T12:42:19.821Z,1369.00
2023-01-13T12:43:19.819Z,1374.00
2023-01-13T12:44:19.811Z,1383.00
2023-01-13T12:45:19.819Z,1390.00
2023-01-13T12:46:19.780Z,1394.00
2023-01-13T12:47:19.784Z,1409.00
2023-01-13T12:48:19.787Z,1429.00
2023-01-13T12:49:19.819Z,1432.00
2023-01-13T12:50:19.753Z,1444.00
2023-01-13T12:51:19.749Z,1473.00
2023-01-13T12:52:19.752Z,1471.00
2023-01-13T12:53:19.749Z,1477.00
2023-01-13T12:54:19.745Z,1498.00
2023-01-13T12:55:19.721Z,1382.00
2023-01-13T12:56:19.695Z,1033.00
2023-01-13T12:57:19.689Z,954.00
2023-01-13T12:58:19.683Z,867.00
2023-01-13T12:59:19.703Z,807.00
2023-01-13T13:00:19.669Z,803.00
2023-01-13T13:01:19.782Z,766.00
2023-01-13T13:02:19.897Z,735.00
2023-01-13T13:03:19.761Z,711.00
2023-01-13T13:04:19.629Z,643.00
2023-01-13T13:05:19.831Z,656.00
2023-01-13T13:06:19.863Z,559.00
2023-01-13T13:07:19.855Z,558.00
2023-01-13T13:08:19.597Z,560.00
2023-01-13T13:09:19.604Z,543.00
2023-01-13T13:10:19.686Z,571.00
2023-01-13T13:11:19.824Z,543.00
2023-01-13T13:12:19.609Z,528.00
2023-01-13T13:13:19.546Z,556.00
2023-01-13T13:14:19.545Z,608.00
2023-01-13T13:15:19.593Z,637.00
2023-01-13T13:16:19.586Z,677.00
2023-01-13T13:17:19.527Z,735.00
2023-01-13T13:18:19.829Z,808.00
2023-01-13T13:19:19.495Z,846.00
2023-01-13T13:20:19.501Z,883.00
2023-01-13T13:21:19.493Z,895.00
2023-01-13T13:22:19.478Z,913.00
2023-01-13T13:23:19.467Z,948.00
2023-01-13T13:24:19.863Z,968.00
2023-01-13T13:25:19.439Z,987.00
2023-01-13T13:26:19.467Z,1000.00
2023-01-13T13:27:19.432Z,1015.00
2023-01-13T13:28:19.427Z,1029.00
2023-01-13T13:29:19.462Z,1041.00
2023-01-13T13:30:19.835Z,1074.00
2023-01-13T13:31:19.414Z,1085.00
2023-01-13T13:32:19.379Z,1081.00
2023-01-13T13:33:19.370Z,952.00
2023-01-13T13:34:19.853Z,896.00
2023-01-13T13:35:19.355Z,866.00